createdAt,value
2018-09-30T00:01:16.157Z,99598.30
2018-09-30T00:03:50.760Z,99602.62
2018-09-30T00:06:25.420Z,99600.73
2018-09-30T00:09:00.022Z,99598.84
2018-09-30T00:11:34.600Z,99592.89
2018-09-30T00:14:09.030Z,99593.44
2018-09-30T00:16:43.545Z,99589.41
2018-09-30T00:19:17.998Z,99585.89
2018-09-30T00:21:52.472Z,99589.39
2018-09-30T00:24:32.584Z,99586.15
2018-09-30T00:27:12.421Z,99576.70
2018-09-30T00:29:47.056Z,99570.73
2018-09-30T00:32:21.535Z,99574.23
2018-09-30T00:34:56.179Z,99573.14
2018-09-30T00:37:30.798Z,99564.77
2018-09-30T00:40:05.329Z,99560.14
2018-09-30T00:42:40.216Z,99558.23
2018-09-30T00:45:14.598Z,99561.50
2018-09-30T00:47:49.281Z,99561.19
2018-09-30T00:50:23.898Z,99553.05
2018-09-30T00:52:58.380Z,99542.79
2018-09-30T00:55:32.933Z,99543.87
2018-09-30T00:58:07.457Z,99529.83
2018-09-30T01:00:42.045Z,99528.77
2018-09-30T01:03:16.808Z,99528.27
2018-09-30T01:05:51.419Z,99525.86
2018-09-30T01:08:25.964Z,99515.88
2018-09-30T01:11:00.620Z,99515.87
2018-09-30T01:13:35.189Z,99508.05
2018-09-30T01:16:10.160Z,99515.06
2018-09-30T01:18:44.829Z,99512.63
2018-09-30T01:21:19.411Z,99519.66
2018-09-30T01:23:54.073Z,99509.13
2018-09-30T01:26:28.569Z,99506.42
2018-09-30T01:29:02.972Z,99499.94
2018-09-30T01:31:37.468Z,99498.03
2018-09-30T01:34:12.060Z,99497.76
2018-09-30T01:36:46.528Z,99493.14
2018-09-30T01:39:20.968Z,99491.53
2018-09-30T01:41:55.364Z,99490.22
2018-09-30T01:44:30.186Z,99478.32
2018-09-30T01:47:04.792Z,99474.52
2018-09-30T01:49:39.452Z,99472.07
2018-09-30T01:52:25.239Z,99461.25
2018-09-30T01:54:59.737Z,99462.59
2018-09-30T01:57:36.512Z,99454.77
2018-09-30T02:00:12.079Z,99454.25
2018-09-30T02:03:03.115Z,99443.45
2018-09-30T02:05:37.755Z,99441.84
2018-09-30T02:08:12.260Z,99440.48
2018-09-30T02:10:47.084Z,99438.59
2018-09-30T02:13:21.864Z,99441.57
2018-09-30T02:15:56.396Z,99438.88
2018-09-30T02:18:31.773Z,99437.52
2018-09-30T02:21:06.258Z,99438.56
2018-09-30T02:23:40.844Z,99438.51
2018-09-30T02:26:15.272Z,99432.02
2018-09-30T02:28:50.185Z,99430.69
2018-09-30T02:31:24.738Z,99432.89
2018-09-30T02:34:06.736Z,99430.45
2018-09-30T02:36:41.306Z,99426.95
2018-09-30T02:39:15.592Z,99419.40
2018-09-30T02:41:49.976Z,99421.55
2018-09-30T02:47:42.866Z,99417.25
2018-09-30T02:50:17.480Z,99411.55
2018-09-30T02:52:52.040Z,99411.55
2018-09-30T02:55:26.638Z,99411.30
2018-09-30T02:58:01.398Z,99397.48
2018-09-30T03:00:35.964Z,99387.23
2018-09-30T03:03:10.397Z,99385.06
2018-09-30T03:05:44.810Z,99385.88
2018-09-30T03:08:24.713Z,99379.39
2018-09-30T03:10:59.248Z,99379.12
2018-09-30T03:13:33.780Z,99372.11
2018-09-30T03:16:08.209Z,99364.54
2018-09-30T03:18:42.695Z,99366.16
2018-09-30T03:21:17.088Z,99372.37
2018-09-30T03:23:51.776Z,99372.37
2018-09-30T03:26:26.374Z,99361.24
2018-09-30T03:29:01.021Z,99361.03
2018-09-30T03:31:35.745Z,99376.15
2018-09-30T03:34:10.231Z,99370.78
2018-09-30T03:36:44.654Z,99365.38
2018-09-30T03:39:19.061Z,99367.55
2018-09-30T03:41:53.441Z,99354.28
2018-09-30T03:44:27.898Z,99346.63
2018-09-30T03:47:02.263Z,99342.00
2018-09-30T03:49:37.019Z,99336.05
2018-09-30T03:52:11.606Z,99334.16
2018-09-30T03:54:46.421Z,99326.60
2018-09-30T03:57:20.832Z,99321.20
2018-09-30T03:59:55.339Z,99328.46
2018-09-30T04:02:30.369Z,99330.67
2018-09-30T04:05:04.815Z,99316.41
2018-09-30T04:07:39.470Z,99321.83
2018-09-30T04:10:13.926Z,99318.06
2018-09-30T04:12:48.555Z,99321.59
2018-09-30T04:15:23.347Z,99319.71
2018-09-30T04:17:57.851Z,99321.84
2018-09-30T04:20:32.429Z,99311.30
2018-09-30T04:23:06.994Z,99310.50
2018-09-30T04:25:41.432Z,99308.89
2018-09-30T04:28:16.516Z,99303.77
2018-09-30T04:30:50.992Z,99295.11
2018-09-30T04:33:25.710Z,99296.18
2018-09-30T04:36:00.423Z,99298.06
2018-09-30T04:38:35.031Z,99284.55
2018-09-30T04:41:09.480Z,99292.92
2018-09-30T04:43:44.300Z,99292.39
2018-09-30T04:46:18.956Z,99298.94
2018-09-30T04:48:53.657Z,99304.08
2018-09-30T04:51:28.310Z,99301.93
2018-09-30T04:54:03.065Z,99308.17
2018-09-30T04:56:37.660Z,99313.83
2018-09-30T04:59:12.429Z,99307.13
2018-09-30T05:01:46.981Z,99306.60
2018-09-30T05:04:21.698Z,99308.73
2018-09-30T05:10:03.122Z,99302.25
2018-09-30T05:12:45.334Z,99313.61
2018-09-30T05:15:19.782Z,99308.49
2018-09-30T05:17:54.207Z,99308.30
2018-09-30T05:20:28.603Z,99307.75
2018-09-30T05:23:03.119Z,99310.47
2018-09-30T05:25:37.845Z,99301.30
2018-09-30T05:28:12.285Z,99303.70
2018-09-30T05:30:46.775Z,99302.61
2018-09-30T05:33:21.213Z,99302.63
2018-09-30T05:35:56.081Z,99302.92
2018-09-30T05:38:30.678Z,99309.95
2018-09-30T05:41:05.452Z,99306.14
2018-09-30T05:43:39.939Z,99304.25
2018-09-30T05:46:14.614Z,99301.81
2018-09-30T05:48:49.172Z,99300.70
2018-09-30T05:51:23.735Z,99303.96
2018-09-30T05:53:58.134Z,99306.38
2018-09-30T05:56:32.782Z,99298.83
2018-09-30T06:02:20.601Z,99303.67
2018-09-30T06:04:55.116Z,99304.47
2018-09-30T06:07:29.695Z,99298.78
2018-09-30T06:10:04.252Z,99302.81
2018-09-30T06:12:38.808Z,99289.58
2018-09-30T06:15:13.253Z,99298.46
2018-09-30T06:17:47.683Z,99293.59
2018-09-30T06:20:22.192Z,99294.11
2018-09-30T06:22:56.695Z,99293.80
2018-09-30T06:25:31.365Z,99298.63
2018-09-30T06:28:05.847Z,99301.33
2018-09-30T06:30:40.343Z,99296.19
2018-09-30T06:33:14.871Z,99295.91
2018-09-30T06:35:49.323Z,99296.67
2018-09-30T06:38:23.736Z,99303.94
2018-09-30T06:40:58.192Z,99300.08
2018-09-30T06:43:33.268Z,99299.20
2018-09-30T06:46:07.900Z,99294.23
2018-09-30T06:48:42.932Z,99298.25
2018-09-30T06:51:17.456Z,99305.22
2018-09-30T06:53:59.501Z,99295.30
2018-09-30T06:56:34.171Z,99293.81
2018-09-30T06:59:08.984Z,99285.21
2018-09-30T07:01:43.563Z,99280.56
2018-09-30T07:04:17.900Z,99274.51
2018-09-30T07:06:52.285Z,99265.72
2018-09-30T07:09:26.809Z,99264.43
2018-09-30T07:12:01.288Z,99270.30
2018-09-30T07:14:36.160Z,99269.63
2018-09-30T07:17:10.571Z,99272.80
2018-09-30T07:19:45.306Z,99272.35
2018-09-30T07:22:19.758Z,99273.78
2018-09-30T07:24:54.191Z,99279.81
2018-09-30T07:27:28.654Z,99281.54
2018-09-30T07:30:07.928Z,99283.59
2018-09-30T07:32:42.408Z,99283.25
2018-09-30T07:35:17.708Z,99278.28
2018-09-30T07:37:52.398Z,99282.70
2018-09-30T07:40:26.988Z,99292.75
2018-09-30T07:43:01.476Z,99292.78
2018-09-30T07:45:35.965Z,99294.22
2018-09-30T07:48:15.796Z,99289.23
2018-09-30T07:50:50.341Z,99293.86
2018-09-30T07:53:25.080Z,99289.80
2018-09-30T07:56:18.252Z,99288.07
2018-09-30T07:58:52.994Z,99280.22
2018-09-30T08:01:28.192Z,99277.55
2018-09-30T08:04:02.793Z,99283.46
2018-09-30T08:06:37.354Z,99270.26
2018-09-30T08:09:12.660Z,99278.72
2018-09-30T08:11:47.205Z,99272.48
2018-09-30T08:14:21.668Z,99277.11
2018-09-30T08:16:56.136Z,99280.89
2018-09-30T08:19:30.945Z,99276.16
2018-09-30T08:22:05.672Z,99271.75
2018-09-30T08:24:40.454Z,99272.77
2018-09-30T08:27:15.246Z,99277.23
2018-09-30T08:29:50.085Z,99271.14
2018-09-30T08:32:24.619Z,99268.48
2018-09-30T08:34:58.977Z,99273.39
2018-09-30T08:37:38.654Z,99271.55
2018-09-30T08:40:13.308Z,99270.91
2018-09-30T08:42:47.801Z,99265.66
2018-09-30T08:45:22.266Z,99272.94
2018-09-30T08:47:57.488Z,99267.39
2018-09-30T08:50:31.933Z,99257.59
2018-09-30T08:53:06.660Z,99257.10
2018-09-30T08:55:41.221Z,99257.28
2018-09-30T08:58:15.772Z,99252.94
2018-09-30T09:00:50.412Z,99251.19
2018-09-30T09:03:25.711Z,99255.69
2018-09-30T09:06:00.174Z,99259.04
2018-09-30T09:08:34.637Z,99259.38
2018-09-30T09:11:09.226Z,99256.80
2018-09-30T09:13:44.145Z,99255.15
2018-09-30T09:16:19.105Z,99261.59
2018-09-30T09:18:54.181Z,99257.98
2018-09-30T09:30:32.874Z,99244.62
2018-09-30T09:33:07.526Z,99253.90
2018-09-30T09:35:42.204Z,99251.89
2018-09-30T09:38:16.937Z,99247.53
2018-09-30T09:40:51.478Z,99242.04
2018-09-30T09:43:26.041Z,99240.01
2018-09-30T09:46:00.784Z,99241.98
2018-09-30T09:48:35.408Z,99241.38
2018-09-30T09:51:09.921Z,99239.23
2018-09-30T09:53:44.601Z,99238.98
2018-09-30T09:56:19.134Z,99236.23
2018-09-30T10:01:35.568Z,99233.59
2018-09-30T10:04:09.946Z,99231.34
2018-09-30T10:06:44.604Z,99221.78
2018-09-30T10:09:19.094Z,99221.80
2018-09-30T10:11:53.676Z,99220.44
2018-09-30T10:14:28.075Z,99224.27
2018-09-30T10:17:02.531Z,99218.12
2018-09-30T10:19:37.016Z,99209.83
2018-09-30T10:22:11.535Z,99209.27
2018-09-30T10:24:45.851Z,99198.25
2018-09-30T10:27:20.170Z,99192.48
2018-09-30T10:29:54.638Z,99195.23
2018-09-30T10:32:29.060Z,99190.88
2018-09-30T10:35:03.364Z,99186.31
2018-09-30T10:37:37.792Z,99185.92
2018-09-30T10:40:12.239Z,99181.02
2018-09-30T10:42:46.704Z,99188.41
2018-09-30T10:45:20.964Z,99179.46
2018-09-30T10:47:55.751Z,99173.12
2018-09-30T10:50:30.121Z,99167.63
2018-09-30T10:53:04.422Z,99171.77
2018-09-30T10:55:38.713Z,99175.75
2018-09-30T10:58:13.260Z,99159.70
2018-09-30T11:00:47.775Z,99167.89
2018-09-30T11:03:22.179Z,99161.31
2018-09-30T11:05:56.552Z,99153.77
2018-09-30T11:08:30.960Z,99158.09
2018-09-30T11:11:05.415Z,99152.64
2018-09-30T11:13:39.871Z,99151.18
2018-09-30T11:16:14.392Z,99140.83
2018-09-30T11:18:48.807Z,99141.32
2018-09-30T11:21:23.095Z,99136.09
2018-09-30T11:23:57.443Z,99132.66
2018-09-30T11:26:31.795Z,99134.45
2018-09-30T11:29:06.476Z,99132.36
2018-09-30T11:31:41.436Z,99124.91
2018-09-30T11:34:15.996Z,99126.13
2018-09-30T11:36:54.415Z,99114.50
2018-09-30T11:39:29.051Z,99113.19
2018-09-30T11:42:04.269Z,99110.23
2018-09-30T11:44:38.933Z,99109.23
2018-09-30T11:47:13.485Z,99106.02
2018-09-30T11:49:48.194Z,99093.53
2018-09-30T11:52:23.310Z,99090.94
2018-09-30T11:54:57.849Z,99088.58
2018-09-30T11:57:32.936Z,99085.63
2018-09-30T12:00:07.637Z,99091.39
2018-09-30T12:02:42.348Z,99087.06
2018-09-30T12:05:17.179Z,99083.42
2018-09-30T12:07:52.021Z,99080.74
2018-09-30T12:10:26.765Z,99072.64
2018-09-30T12:13:01.349Z,99068.35
2018-09-30T12:15:36.081Z,99061.26
2018-09-30T12:18:10.600Z,99059.40
2018-09-30T12:20:45.365Z,99066.34
2018-09-30T12:23:20.070Z,99057.11
2018-09-30T12:25:54.963Z,99048.52
2018-09-30T12:28:29.673Z,99044.83
2018-09-30T12:31:04.224Z,99043.59
2018-09-30T12:33:39.259Z,99042.45
2018-09-30T12:36:14.188Z,99044.50
2018-09-30T12:38:49.017Z,99036.64
2018-09-30T12:41:23.642Z,99030.38
2018-09-30T12:43:58.374Z,99020.78
2018-09-30T12:46:33.267Z,99012.34
2018-09-30T12:49:17.929Z,99018.05
2018-09-30T12:52:05.929Z,99010.52
2018-09-30T12:54:40.856Z,99013.61
2018-09-30T12:57:15.632Z,99008.70
2018-09-30T12:59:50.501Z,99005.16
2018-09-30T13:02:26.243Z,99001.17
2018-09-30T13:05:01.361Z,99000.83
2018-09-30T13:07:35.932Z,98996.49
2018-09-30T13:10:10.360Z,98993.98
2018-09-30T13:12:45.232Z,98990.10
2018-09-30T13:15:19.828Z,98991.36
2018-09-30T13:17:54.485Z,98995.80
2018-09-30T13:20:29.179Z,98985.53
2018-09-30T13:23:03.785Z,98984.97
2018-09-30T13:25:42.289Z,98974.02
2018-09-30T13:28:18.973Z,98976.14
2018-09-30T13:30:57.488Z,98984.09
2018-09-30T13:33:32.459Z,98982.57
2018-09-30T13:36:07.102Z,98974.69
2018-09-30T13:38:41.705Z,98977.44
2018-09-30T13:41:16.278Z,98974.81
2018-09-30T13:43:50.856Z,98968.50
2018-09-30T13:46:25.395Z,98965.34
2018-09-30T13:48:59.872Z,98974.24
2018-09-30T13:51:34.569Z,98967.74
2018-09-30T13:54:09.229Z,98968.88
2018-09-30T13:56:43.988Z,98972.20
2018-09-30T13:59:18.775Z,98976.07
2018-09-30T14:01:53.342Z,98969.34
2018-09-30T14:04:27.900Z,98967.29
2018-09-30T14:07:02.332Z,98965.58
2018-09-30T14:09:36.800Z,98962.27
2018-09-30T14:12:11.425Z,98955.99
2018-09-30T14:14:45.992Z,98953.62
2018-09-30T14:17:20.523Z,98960.47
2018-09-30T14:19:55.107Z,98952.82
2018-09-30T14:22:29.968Z,98949.74
2018-09-30T14:25:04.844Z,98943.34
2018-09-30T14:27:39.393Z,98943.09
2018-09-30T14:30:13.946Z,98942.83
2018-09-30T14:32:48.621Z,98940.30
2018-09-30T14:35:23.212Z,98934.22
2018-09-30T14:37:57.836Z,98939.34
2018-09-30T14:40:32.408Z,98937.08
2018-09-30T14:43:07.064Z,98942.00
2018-09-30T14:45:41.685Z,98935.34
2018-09-30T14:48:17.001Z,98939.81
2018-09-30T14:50:51.581Z,98938.72
2018-09-30T14:53:26.248Z,98940.00
2018-09-30T14:56:00.694Z,98931.00
2018-09-30T14:58:35.324Z,98932.70
2018-09-30T15:01:09.990Z,98930.03
2018-09-30T15:03:44.624Z,98930.59
2018-09-30T15:06:19.343Z,98924.02
2018-09-30T15:08:54.112Z,98920.16
2018-09-30T15:11:29.152Z,98923.34
2018-09-30T15:14:04.069Z,98918.45
2018-09-30T15:16:38.509Z,98914.45
2018-09-30T15:19:13.086Z,98910.59
2018-09-30T15:21:47.772Z,98918.66
2018-09-30T15:24:22.405Z,98908.41
2018-09-30T15:26:57.011Z,98903.27
2018-09-30T15:29:31.574Z,98908.31
2018-09-30T15:32:06.099Z,98909.31
2018-09-30T15:34:40.680Z,98916.80
2018-09-30T15:37:15.328Z,98912.36
2018-09-30T15:39:49.933Z,98913.27
2018-09-30T15:42:24.568Z,98906.25
2018-09-30T15:44:59.194Z,98906.13
2018-09-30T15:47:33.917Z,98909.11
2018-09-30T15:50:08.427Z,98904.88
2018-09-30T15:52:43.089Z,98904.00
2018-09-30T15:55:17.818Z,98903.20
2018-09-30T15:57:52.487Z,98908.22
2018-09-30T16:00:27.169Z,98907.43
2018-09-30T16:03:14.401Z,98908.42
2018-09-30T16:05:48.771Z,98898.84
2018-09-30T16:08:23.273Z,98901.27
2018-09-30T16:10:57.889Z,98902.13
2018-09-30T16:13:32.493Z,98900.06
2018-09-30T16:16:07.485Z,98895.75
2018-09-30T16:18:41.980Z,98897.17
2018-09-30T16:21:16.718Z,98903.98
2018-09-30T16:23:51.737Z,98903.12
2018-09-30T16:26:28.212Z,98895.42
2018-09-30T16:29:02.856Z,98897.13
2018-09-30T16:31:37.337Z,98900.21
2018-09-30T16:34:11.972Z,98897.19
2018-09-30T16:36:46.723Z,98898.28
2018-09-30T16:39:21.406Z,98906.06
2018-09-30T16:41:56.249Z,98902.02
2018-09-30T16:44:31.133Z,98908.48
2018-09-30T16:47:05.724Z,98911.33
2018-09-30T16:49:40.200Z,98912.36
2018-09-30T16:52:14.808Z,98909.61
2018-09-30T16:54:49.473Z,98919.83
2018-09-30T16:57:24.116Z,98917.50
2018-09-30T16:59:58.648Z,98915.18
2018-09-30T17:02:33.193Z,98911.94
2018-09-30T17:05:07.983Z,98920.89
2018-09-30T17:07:43.228Z,98924.75
2018-09-30T17:10:17.841Z,98929.34
2018-09-30T17:12:52.313Z,98926.59
2018-09-30T17:15:26.956Z,98927.73
2018-09-30T17:18:01.438Z,98936.66
2018-09-30T17:20:36.156Z,98931.88
2018-09-30T17:23:10.688Z,98936.00
2018-09-30T17:25:45.244Z,98936.69
2018-09-30T17:28:19.759Z,98949.93
2018-09-30T17:30:54.232Z,98948.34
2018-09-30T17:33:29.177Z,98951.77
2018-09-30T17:36:03.636Z,98955.41
2018-09-30T17:38:38.199Z,98954.61
2018-09-30T17:41:12.951Z,98959.06
2018-09-30T17:43:47.564Z,98960.48
2018-09-30T17:46:22.034Z,98963.14
2018-09-30T17:48:56.696Z,98965.85
2018-09-30T17:51:31.512Z,98964.61
2018-09-30T17:54:06.309Z,98965.67
2018-09-30T17:56:41.171Z,98963.53
2018-09-30T17:59:15.573Z,98973.76
2018-09-30T18:01:50.344Z,98968.64
2018-09-30T18:04:25.336Z,98963.17
2018-09-30T18:07:00.032Z,98970.83
2018-09-30T18:09:34.524Z,98972.50
2018-09-30T18:12:09.076Z,98974.10
2018-09-30T18:14:43.455Z,98968.95
2018-09-30T18:17:17.915Z,98966.34
2018-09-30T18:19:52.489Z,98964.04
2018-09-30T18:22:27.483Z,98963.81
2018-09-30T18:25:02.009Z,98967.23
2018-09-30T18:27:36.828Z,98965.67
2018-09-30T18:30:12.112Z,98961.45
2018-09-30T18:32:46.649Z,98962.81
2018-09-30T18:35:21.240Z,98961.00
2018-09-30T18:37:55.983Z,98962.11
2018-09-30T18:40:38.449Z,98957.29
2018-09-30T18:43:13.404Z,98966.78
2018-09-30T18:45:48.233Z,98970.84
2018-09-30T18:48:22.920Z,98965.73
2018-09-30T18:50:57.402Z,98964.98
2018-09-30T18:53:31.917Z,98964.44
2018-09-30T18:56:07.032Z,98962.72
2018-09-30T18:58:41.593Z,98963.06
2018-09-30T19:01:16.149Z,98962.56
2018-09-30T19:03:50.664Z,98955.84
2018-09-30T19:06:25.429Z,98963.76
2018-09-30T19:09:00.069Z,98961.90
2018-09-30T19:11:34.702Z,98954.07
2018-09-30T19:14:09.424Z,98957.05
2018-09-30T19:16:44.157Z,98952.78
2018-09-30T19:19:19.146Z,98951.47
2018-09-30T19:21:53.643Z,98949.86
2018-09-30T19:24:28.157Z,98947.20
2018-09-30T19:27:02.688Z,98947.75
2018-09-30T19:29:37.305Z,98951.52
2018-09-30T19:32:11.704Z,98950.07
2018-09-30T19:34:46.661Z,98942.94
2018-09-30T19:37:21.140Z,98943.00
2018-09-30T19:39:55.703Z,98939.99
2018-09-30T19:42:30.141Z,98944.59
2018-09-30T19:45:05.277Z,98949.20
2018-09-30T19:47:39.749Z,98945.95
2018-09-30T19:50:14.352Z,98939.75
2018-09-30T19:52:49.045Z,98943.63
2018-09-30T19:55:23.734Z,98938.09
2018-09-30T19:58:04.440Z,98941.47
2018-09-30T20:00:43.721Z,98935.41
2018-09-30T20:03:18.352Z,98941.70
2018-09-30T20:05:52.977Z,98942.88
2018-09-30T20:08:27.609Z,98934.60
2018-09-30T20:11:02.701Z,98943.58
2018-09-30T20:13:37.388Z,98937.26
2018-09-30T20:16:11.785Z,98933.87
2018-09-30T20:18:46.236Z,98930.59
2018-09-30T20:21:20.884Z,98931.77
2018-09-30T20:23:55.793Z,98929.80
2018-09-30T20:26:30.392Z,98923.75
2018-09-30T20:29:05.085Z,98923.99
2018-09-30T20:31:39.782Z,98921.90
2018-09-30T20:34:14.412Z,98919.67
2018-09-30T20:36:49.073Z,98916.41
2018-09-30T20:39:23.612Z,98915.36
2018-09-30T20:41:58.317Z,98915.61
2018-09-30T20:44:32.868Z,98922.64
2018-09-30T20:47:07.593Z,98918.01
2018-09-30T20:49:42.233Z,98920.54
2018-09-30T20:52:16.929Z,98922.08
2018-09-30T20:54:51.385Z,98918.69
2018-09-30T20:57:25.984Z,98919.80
2018-09-30T21:00:00.875Z,98921.59
2018-09-30T21:02:35.444Z,98914.62
2018-09-30T21:05:19.464Z,98909.68
2018-09-30T21:07:54.287Z,98914.92
2018-09-30T21:10:28.765Z,98914.13
2018-09-30T21:13:03.400Z,98918.20
2018-09-30T21:15:37.993Z,98908.20
2018-09-30T21:18:12.546Z,98914.19
2018-09-30T21:20:47.497Z,98908.70
2018-09-30T21:23:22.069Z,98912.58
2018-09-30T21:25:56.985Z,98911.78
2018-09-30T21:28:31.635Z,98904.87
2018-09-30T21:31:06.164Z,98898.02
2018-09-30T21:33:40.704Z,98907.58
2018-09-30T21:36:15.341Z,98903.75
2018-09-30T21:38:49.968Z,98902.34
2018-09-30T21:41:24.532Z,98904.31
2018-09-30T21:43:59.296Z,98896.97
2018-09-30T21:46:33.712Z,98898.63
2018-09-30T21:49:08.689Z,98899.39
2018-09-30T21:51:43.112Z,98895.26
2018-09-30T21:54:17.956Z,98900.30
2018-09-30T21:56:52.572Z,98903.87
2018-09-30T21:59:27.040Z,98897.70
2018-09-30T22:02:01.538Z,98902.16
2018-09-30T22:04:36.191Z,98898.20
2018-09-30T22:07:10.718Z,98894.56
2018-09-30T22:09:45.105Z,98896.54
2018-09-30T22:12:19.580Z,98893.61
2018-09-30T22:14:54.216Z,98899.34
2018-09-30T22:17:28.912Z,98890.28
2018-09-30T22:20:03.397Z,98897.92
2018-09-30T22:22:38.385Z,98889.84
2018-09-30T22:25:12.923Z,98879.79
2018-09-30T22:27:47.864Z,98889.78
2018-09-30T22:30:22.468Z,98888.80
2018-09-30T22:32:57.029Z,98895.08
2018-09-30T22:35:31.377Z,98895.72
2018-09-30T22:38:06.032Z,98896.40
2018-09-30T22:40:40.617Z,98891.30
2018-09-30T22:43:15.248Z,98896.98
2018-09-30T22:45:49.876Z,98895.80
2018-09-30T22:48:24.423Z,98898.06
2018-09-30T22:50:58.949Z,98903.30
2018-09-30T22:53:33.591Z,98904.22
2018-09-30T22:56:08.179Z,98911.72
2018-09-30T22:58:43.120Z,98910.23
2018-09-30T23:01:17.984Z,98900.30
2018-09-30T23:03:52.960Z,98906.88
2018-09-30T23:06:27.628Z,98909.00
2018-09-30T23:09:02.101Z,98902.70
2018-09-30T23:11:36.908Z,98902.75
2018-09-30T23:14:11.441Z,98905.56
2018-09-30T23:16:46.004Z,98905.36
2018-09-30T23:19:20.500Z,98903.61
2018-09-30T23:21:55.057Z,98904.86
2018-09-30T23:24:29.573Z,98906.77
2018-09-30T23:27:04.270Z,98909.13
2018-09-30T23:29:39.008Z,98904.56
2018-09-30T23:32:13.611Z,98901.45
2018-09-30T23:34:48.217Z,98898.94
2018-09-30T23:37:22.944Z,98895.87
2018-09-30T23:40:17.372Z,98905.30
2018-09-30T23:42:51.907Z,98904.94
2018-09-30T23:45:26.840Z,98909.50
2018-09-30T23:48:01.493Z,98908.40
2018-09-30T23:50:36.136Z,98904.58
2018-09-30T23:53:10.822Z,98896.15
2018-09-30T23:55:45.697Z,98901.52
2018-09-30T23:58:20.433Z,98896.84
